sensor_id;sensor_type;location;lat;lon;timestamp;temperature;humidity
76537;DHT22;65381;51.254;15.592;2023-05-10T00:00:21;7.50;58.80
76537;DHT22;65381;51.254;15.592;2023-05-10T00:03:08;7.50;58.90
76537;DHT22;65381;51.254;15.592;2023-05-10T00:05:36;7.40;59.00
76537;DHT22;65381;51.254;15.592;2023-05-10T00:08:05;7.30;59.30
76537;DHT22;65381;51.254;15.592;2023-05-10T00:10:33;7.20;59.20
76537;DHT22;65381;51.254;15.592;2023-05-10T00:13:01;7.20;59.50
76537;DHT22;65381;51.254;15.592;2023-05-10T00:15:30;7.20;59.20
76537;DHT22;65381;51.254;15.592;2023-05-10T00:18:01;7.20;59.20
76537;DHT22;65381;51.254;15.592;2023-05-10T00:20:29;7.20;59.60
76537;DHT22;65381;51.254;15.592;2023-05-10T00:22:57;7.20;59.50
76537;DHT22;65381;51.254;15.592;2023-05-10T00:25:25;7.20;59.50
76537;DHT22;65381;51.254;15.592;2023-05-10T00:27:54;7.20;59.60
76537;DHT22;65381;51.254;15.592;2023-05-10T00:30:24;7.20;59.90
76537;DHT22;65381;51.254;15.592;2023-05-10T00:32:53;7.20;60.00
76537;DHT22;65381;51.254;15.592;2023-05-10T00:35:21;7.20;59.90
76537;DHT22;65381;51.254;15.592;2023-05-10T00:37:49;7.20;59.70
76537;DHT22;65381;51.254;15.592;2023-05-10T00:40:17;7.20;59.80
76537;DHT22;65381;51.254;15.592;2023-05-10T00:42:50;7.20;59.90
76537;DHT22;65381;51.254;15.592;2023-05-10T00:45:18;7.20;60.10
76537;DHT22;65381;51.254;15.592;2023-05-10T00:47:47;7.20;60.00
76537;DHT22;65381;51.254;15.592;2023-05-10T00:50:15;7.20;60.30
76537;DHT22;65381;51.254;15.592;2023-05-10T00:52:44;7.20;60.40
76537;DHT22;65381;51.254;15.592;2023-05-10T00:55:12;7.20;60.20
76537;DHT22;65381;51.254;15.592;2023-05-10T00:57:41;7.20;60.20
76537;DHT22;65381;51.254;15.592;2023-05-10T01:00:10;7.20;60.20
76537;DHT22;65381;51.254;15.592;2023-05-10T01:02:40;7.20;60.00
76537;DHT22;65381;51.254;15.592;2023-05-10T01:05:09;7.20;60.10
76537;DHT22;65381;51.254;15.592;2023-05-10T01:07:37;7.20;60.20
76537;DHT22;65381;51.254;15.592;2023-05-10T01:10:06;7.20;60.20
76537;DHT22;65381;51.254;15.592;2023-05-10T01:12:38;7.10;60.30
76537;DHT22;65381;51.254;15.592;2023-05-10T01:15:09;7.00;60.60
76537;DHT22;65381;51.254;15.592;2023-05-10T01:17:40;7.00;60.70
76537;DHT22;65381;51.254;15.592;2023-05-10T01:20:10;7.00;61.00
76537;DHT22;65381;51.254;15.592;2023-05-10T01:31:07;6.90;61.10
76537;DHT22;65381;51.254;15.592;2023-05-10T01:38:53;6.90;61.10
76537;DHT22;65381;51.254;15.592;2023-05-10T01:44:25;6.90;61.30
76537;DHT22;65381;51.254;15.592;2023-05-10T01:49:59;6.90;61.80
76537;DHT22;65381;51.254;15.592;2023-05-10T01:52:41;6.90;61.40
76537;DHT22;65381;51.254;15.592;2023-05-10T01:55:15;6.90;61.40
76537;DHT22;65381;51.254;15.592;2023-05-10T01:57:44;6.90;61.40
76537;DHT22;65381;51.254;15.592;2023-05-10T02:00:14;6.90;61.40
76537;DHT22;65381;51.254;15.592;2023-05-10T02:02:48;6.90;61.60
76537;DHT22;65381;51.254;15.592;2023-05-10T02:05:19;6.90;61.70
76537;DHT22;65381;51.254;15.592;2023-05-10T02:07:48;6.90;61.80
76537;DHT22;65381;51.254;15.592;2023-05-10T02:10:20;6.90;61.80
76537;DHT22;65381;51.254;15.592;2023-05-10T02:12:48;6.90;61.60
76537;DHT22;65381;51.254;15.592;2023-05-10T02:15:22;6.90;61.70
76537;DHT22;65381;51.254;15.592;2023-05-10T02:17:51;6.80;61.90
76537;DHT22;65381;51.254;15.592;2023-05-10T02:20:22;6.80;61.90
76537;DHT22;65381;51.254;15.592;2023-05-10T02:22:52;6.80;61.90
76537;DHT22;65381;51.254;15.592;2023-05-10T02:25:23;6.80;61.90
76537;DHT22;65381;51.254;15.592;2023-05-10T02:27:55;6.80;61.80
76537;DHT22;65381;51.254;15.592;2023-05-10T02:30:26;6.80;61.90
76537;DHT22;65381;51.254;15.592;2023-05-10T02:32:54;6.80;61.80
76537;DHT22;65381;51.254;15.592;2023-05-10T02:35:25;6.70;61.90
76537;DHT22;65381;51.254;15.592;2023-05-10T02:37:54;6.80;62.10
76537;DHT22;65381;51.254;15.592;2023-05-10T02:40:25;6.70;62.20
76537;DHT22;65381;51.254;15.592;2023-05-10T02:42:56;6.70;62.30
76537;DHT22;65381;51.254;15.592;2023-05-10T02:45:30;6.70;62.20
76537;DHT22;65381;51.254;15.592;2023-05-10T02:47:58;6.70;62.40
76537;DHT22;65381;51.254;15.592;2023-05-10T02:50:28;6.70;62.60
76537;DHT22;65381;51.254;15.592;2023-05-10T02:53:00;6.70;62.50
76537;DHT22;65381;51.254;15.592;2023-05-10T02:55:35;6.70;62.50
76537;DHT22;65381;51.254;15.592;2023-05-10T02:58:04;6.70;62.60
76537;DHT22;65381;51.254;15.592;2023-05-10T03:00:33;6.70;62.60
76537;DHT22;65381;51.254;15.592;2023-05-10T03:03:01;6.70;62.70
76537;DHT22;65381;51.254;15.592;2023-05-10T03:05:29;6.70;62.60
76537;DHT22;65381;51.254;15.592;2023-05-10T03:08:01;6.60;62.70
76537;DHT22;65381;51.254;15.592;2023-05-10T03:10:33;6.60;63.00
76537;DHT22;65381;51.254;15.592;2023-05-10T03:16:08;6.60;63.00
76537;DHT22;65381;51.254;15.592;2023-05-10T03:19:24;6.70;63.00
76537;DHT22;65381;51.254;15.592;2023-05-10T03:21:57;6.70;63.30
76537;DHT22;65381;51.254;15.592;2023-05-10T03:24:31;6.70;63.20
76537;DHT22;65381;51.254;15.592;2023-05-10T03:27:02;6.80;63.20
76537;DHT22;65381;51.254;15.592;2023-05-10T03:29:32;6.80;63.30
76537;DHT22;65381;51.254;15.592;2023-05-10T03:32:00;6.80;63.40
76537;DHT22;65381;51.254;15.592;2023-05-10T03:34:30;6.80;63.60
76537;DHT22;65381;51.254;15.592;2023-05-10T03:37:01;6.90;63.70
76537;DHT22;65381;51.254;15.592;2023-05-10T03:39:31;7.00;63.70
76537;DHT22;65381;51.254;15.592;2023-05-10T03:42:00;7.00;63.70
76537;DHT22;65381;51.254;15.592;2023-05-10T03:44:30;7.20;63.80
76537;DHT22;65381;51.254;15.592;2023-05-10T03:46:59;7.40;63.80
76537;DHT22;65381;51.254;15.592;2023-05-10T03:49:27;7.50;63.80
76537;DHT22;65381;51.254;15.592;2023-05-10T03:51:55;7.60;63.80
76537;DHT22;65381;51.254;15.592;2023-05-10T03:54:24;7.80;63.90
76537;DHT22;65381;51.254;15.592;2023-05-10T03:56:52;7.90;63.90
76537;DHT22;65381;51.254;15.592;2023-05-10T03:59:21;8.00;63.90
76537;DHT22;65381;51.254;15.592;2023-05-10T04:01:51;8.20;63.90
76537;DHT22;65381;51.254;15.592;2023-05-10T04:04:19;8.30;63.90
76537;DHT22;65381;51.254;15.592;2023-05-10T04:06:50;8.50;63.90
76537;DHT22;65381;51.254;15.592;2023-05-10T04:09:19;8.60;63.90
76537;DHT22;65381;51.254;15.592;2023-05-10T04:11:47;8.90;63.80
76537;DHT22;65381;51.254;15.592;2023-05-10T04:14:15;9.20;63.80
76537;DHT22;65381;51.254;15.592;2023-05-10T04:16:44;9.40;63.60
76537;DHT22;65381;51.254;15.592;2023-05-10T04:19:12;9.60;63.50
76537;DHT22;65381;51.254;15.592;2023-05-10T04:21:41;9.90;63.40
76537;DHT22;65381;51.254;15.592;2023-05-10T04:24:09;10.10;63.40
76537;DHT22;65381;51.254;15.592;2023-05-10T04:26:37;10.40;63.40
76537;DHT22;65381;51.254;15.592;2023-05-10T04:29:04;10.70;63.20
76537;DHT22;65381;51.254;15.592;2023-05-10T04:31:33;10.90;63.00
76537;DHT22;65381;51.254;15.592;2023-05-10T04:34:01;11.10;62.90
76537;DHT22;65381;51.254;15.592;2023-05-10T04:36:29;11.50;63.00
76537;DHT22;65381;51.254;15.592;2023-05-10T04:38:57;11.70;62.90
76537;DHT22;65381;51.254;15.592;2023-05-10T04:41:26;12.10;62.60
76537;DHT22;65381;51.254;15.592;2023-05-10T04:43:54;12.30;62.60
76537;DHT22;65381;51.254;15.592;2023-05-10T04:46:23;12.60;62.40
76537;DHT22;65381;51.254;15.592;2023-05-10T04:48:51;12.90;62.10
76537;DHT22;65381;51.254;15.592;2023-05-10T04:51:19;13.10;61.70
76537;DHT22;65381;51.254;15.592;2023-05-10T04:53:48;13.30;61.70
76537;DHT22;65381;51.254;15.592;2023-05-10T04:56:31;13.50;61.60
76537;DHT22;65381;51.254;15.592;2023-05-10T04:58:59;13.90;61.70
76537;DHT22;65381;51.254;15.592;2023-05-10T05:01:28;14.20;61.20
76537;DHT22;65381;51.254;15.592;2023-05-10T05:03:57;14.40;61.10
76537;DHT22;65381;51.254;15.592;2023-05-10T05:06:26;14.80;61.10
76537;DHT22;65381;51.254;15.592;2023-05-10T05:08:55;15.00;60.60
76537;DHT22;65381;51.254;15.592;2023-05-10T05:11:23;15.30;60.70
76537;DHT22;65381;51.254;15.592;2023-05-10T05:13:51;15.60;60.40
76537;DHT22;65381;51.254;15.592;2023-05-10T05:16:19;16.00;60.50
76537;DHT22;65381;51.254;15.592;2023-05-10T05:18:47;16.40;60.30
76537;DHT22;65381;51.254;15.592;2023-05-10T05:21:18;16.90;59.90
76537;DHT22;65381;51.254;15.592;2023-05-10T05:23:46;17.20;59.70
76537;DHT22;65381;51.254;15.592;2023-05-10T05:26:15;17.50;59.40
76537;DHT22;65381;51.254;15.592;2023-05-10T05:28:44;17.70;59.30
76537;DHT22;65381;51.254;15.592;2023-05-10T05:31:14;18.00;59.00
76537;DHT22;65381;51.254;15.592;2023-05-10T05:33:42;18.60;58.40
76537;DHT22;65381;51.254;15.592;2023-05-10T05:36:10;19.30;57.50
76537;DHT22;65381;51.254;15.592;2023-05-10T05:38:38;19.90;56.80
76537;DHT22;65381;51.254;15.592;2023-05-10T05:41:06;20.50;56.20
76537;DHT22;65381;51.254;15.592;2023-05-10T05:43:34;21.10;55.50
76537;DHT22;65381;51.254;15.592;2023-05-10T05:46:05;21.70;55.20
76537;DHT22;65381;51.254;15.592;2023-05-10T05:48:33;22.20;54.30
76537;DHT22;65381;51.254;15.592;2023-05-10T05:51:02;22.50;54.30
76537;DHT22;65381;51.254;15.592;2023-05-10T05:53:33;22.90;53.90
76537;DHT22;65381;51.254;15.592;2023-05-10T05:56:03;23.60;53.90
76537;DHT22;65381;51.254;15.592;2023-05-10T05:58:31;24.00;53.20
76537;DHT22;65381;51.254;15.592;2023-05-10T06:00:59;24.20;52.70
76537;DHT22;65381;51.254;15.592;2023-05-10T06:03:28;24.20;52.70
76537;DHT22;65381;51.254;15.592;2023-05-10T06:05:57;24.30;52.60
76537;DHT22;65381;51.254;15.592;2023-05-10T06:08:24;24.50;52.70
76537;DHT22;65381;51.254;15.592;2023-05-10T06:10:53;24.60;52.50
76537;DHT22;65381;51.254;15.592;2023-05-10T06:13:22;24.70;52.70
76537;DHT22;65381;51.254;15.592;2023-05-10T06:15:50;24.90;51.80
76537;DHT22;65381;51.254;15.592;2023-05-10T06:18:18;24.80;51.60
76537;DHT22;65381;51.254;15.592;2023-05-10T06:20:46;24.50;51.80
76537;DHT22;65381;51.254;15.592;2023-05-10T06:23:14;24.40;51.50
76537;DHT22;65381;51.254;15.592;2023-05-10T06:25:44;24.20;51.20
76537;DHT22;65381;51.254;15.592;2023-05-10T06:28:12;24.10;51.00
76537;DHT22;65381;51.254;15.592;2023-05-10T06:30:40;23.90;51.30
76537;DHT22;65381;51.254;15.592;2023-05-10T06:33:08;24.00;51.30
76537;DHT22;65381;51.254;15.592;2023-05-10T06:35:36;24.20;50.50
76537;DHT22;65381;51.254;15.592;2023-05-10T06:38:05;24.30;50.60
76537;DHT22;65381;51.254;15.592;2023-05-10T06:40:33;24.90;50.60
76537;DHT22;65381;51.254;15.592;2023-05-10T06:43:01;25.60;49.70
76537;DHT22;65381;51.254;15.592;2023-05-10T06:45:29;25.80;49.20
76537;DHT22;65381;51.254;15.592;2023-05-10T06:47:57;25.80;49.40
76537;DHT22;65381;51.254;15.592;2023-05-10T06:50:25;25.80;48.60
76537;DHT22;65381;51.254;15.592;2023-05-10T06:52:53;25.50;48.90
76537;DHT22;65381;51.254;15.592;2023-05-10T06:55:23;25.80;49.30
76537;DHT22;65381;51.254;15.592;2023-05-10T06:57:51;26.10;48.20
76537;DHT22;65381;51.254;15.592;2023-05-10T07:00:20;26.00;47.50
76537;DHT22;65381;51.254;15.592;2023-05-10T07:02:48;25.80;47.50
76537;DHT22;65381;51.254;15.592;2023-05-10T07:05:16;25.70;47.50
76537;DHT22;65381;51.254;15.592;2023-05-10T07:07:45;25.80;46.70
76537;DHT22;65381;51.254;15.592;2023-05-10T07:10:13;25.60;47.30
76537;DHT22;65381;51.254;15.592;2023-05-10T07:12:41;25.70;47.10
76537;DHT22;65381;51.254;15.592;2023-05-10T07:15:09;25.90;47.00
76537;DHT22;65381;51.254;15.592;2023-05-10T07:17:38;26.20;46.60
76537;DHT22;65381;51.254;15.592;2023-05-10T07:20:08;26.10;45.90
76537;DHT22;65381;51.254;15.592;2023-05-10T07:22:36;26.00;45.50
76537;DHT22;65381;51.254;15.592;2023-05-10T07:25:04;26.20;46.20
76537;DHT22;65381;51.254;15.592;2023-05-10T07:27:33;27.10;45.20
76537;DHT22;65381;51.254;15.592;2023-05-10T07:30:02;27.30;44.80
76537;DHT22;65381;51.254;15.592;2023-05-10T07:32:30;27.30;44.50
76537;DHT22;65381;51.254;15.592;2023-05-10T07:34:59;27.40;44.50
76537;DHT22;65381;51.254;15.592;2023-05-10T07:37:27;27.40;44.10
76537;DHT22;65381;51.254;15.592;2023-05-10T07:39:56;27.40;43.40
76537;DHT22;65381;51.254;15.592;2023-05-10T07:42:25;27.30;43.00
76537;DHT22;65381;51.254;15.592;2023-05-10T07:44:53;27.20;43.00
76537;DHT22;65381;51.254;15.592;2023-05-10T07:47:21;27.30;42.90
76537;DHT22;65381;51.254;15.592;2023-05-10T07:49:49;27.50;42.70
76537;DHT22;65381;51.254;15.592;2023-05-10T07:52:17;28.00;42.40
76537;DHT22;65381;51.254;15.592;2023-05-10T07:54:49;28.10;42.40
76537;DHT22;65381;51.254;15.592;2023-05-10T07:57:17;28.30;42.40
76537;DHT22;65381;51.254;15.592;2023-05-10T07:59:47;28.60;42.20
76537;DHT22;65381;51.254;15.592;2023-05-10T08:02:15;28.60;41.80
76537;DHT22;65381;51.254;15.592;2023-05-10T08:04:43;28.40;41.50
76537;DHT22;65381;51.254;15.592;2023-05-10T08:07:11;28.20;41.20
76537;DHT22;65381;51.254;15.592;2023-05-10T08:09:39;28.20;41.20
76537;DHT22;65381;51.254;15.592;2023-05-10T08:12:07;28.50;41.20
76537;DHT22;65381;51.254;15.592;2023-05-10T08:14:36;28.80;40.90
76537;DHT22;65381;51.254;15.592;2023-05-10T08:17:06;28.80;40.40
76537;DHT22;65381;51.254;15.592;2023-05-10T08:19:35;28.70;40.30
76537;DHT22;65381;51.254;15.592;2023-05-10T08:22:03;28.50;40.20
76537;DHT22;65381;51.254;15.592;2023-05-10T08:24:31;28.70;40.30
76537;DHT22;65381;51.254;15.592;2023-05-10T08:26:59;28.90;40.00
76537;DHT22;65381;51.254;15.592;2023-05-10T08:29:27;29.20;39.60
76537;DHT22;65381;51.254;15.592;2023-05-10T08:32:01;29.30;38.60
76537;DHT22;65381;51.254;15.592;2023-05-10T08:34:30;29.20;39.40
76537;DHT22;65381;51.254;15.592;2023-05-10T08:36:58;29.40;38.80
76537;DHT22;65381;51.254;15.592;2023-05-10T08:39:27;29.20;38.30
76537;DHT22;65381;51.254;15.592;2023-05-10T08:42:01;29.10;38.30
76537;DHT22;65381;51.254;15.592;2023-05-10T08:44:34;29.50;38.40
76537;DHT22;65381;51.254;15.592;2023-05-10T08:47:07;30.30;37.80
76537;DHT22;65381;51.254;15.592;2023-05-10T08:49:37;30.80;37.80
76537;DHT22;65381;51.254;15.592;2023-05-10T08:52:05;31.30;37.70
76537;DHT22;65381;51.254;15.592;2023-05-10T08:54:35;32.10;37.50
76537;DHT22;65381;51.254;15.592;2023-05-10T08:57:04;32.40;36.60
76537;DHT22;65381;51.254;15.592;2023-05-10T08:59:33;32.00;36.70
76537;DHT22;65381;51.254;15.592;2023-05-10T09:02:01;31.80;37.00
76537;DHT22;65381;51.254;15.592;2023-05-10T09:04:30;32.00;36.70
76537;DHT22;65381;51.254;15.592;2023-05-10T09:06:59;31.90;36.40
76537;DHT22;65381;51.254;15.592;2023-05-10T09:09:28;31.80;36.40
76537;DHT22;65381;51.254;15.592;2023-05-10T09:11:56;32.10;36.10
76537;DHT22;65381;51.254;15.592;2023-05-10T09:14:25;32.20;36.00
76537;DHT22;65381;51.254;15.592;2023-05-10T09:16:53;32.50;35.80
76537;DHT22;65381;51.254;15.592;2023-05-10T09:19:23;32.50;35.80
76537;DHT22;65381;51.254;15.592;2023-05-10T09:21:51;32.80;35.20
76537;DHT22;65381;51.254;15.592;2023-05-10T09:24:25;32.80;35.30
76537;DHT22;65381;51.254;15.592;2023-05-10T09:26:53;33.00;34.90
76537;DHT22;65381;51.254;15.592;2023-05-10T09:29:24;32.80;34.50
76537;DHT22;65381;51.254;15.592;2023-05-10T09:31:52;32.80;34.60
76537;DHT22;65381;51.254;15.592;2023-05-10T09:34:31;33.10;34.40
76537;DHT22;65381;51.254;15.592;2023-05-10T09:37:00;32.80;33.70
76537;DHT22;65381;51.254;15.592;2023-05-10T09:39:33;32.40;34.30
76537;DHT22;65381;51.254;15.592;2023-05-10T09:42:04;32.20;34.10
76537;DHT22;65381;51.254;15.592;2023-05-10T09:44:33;32.00;34.30
76537;DHT22;65381;51.254;15.592;2023-05-10T09:47:02;32.00;34.10
76537;DHT22;65381;51.254;15.592;2023-05-10T09:49:31;32.50;33.90
76537;DHT22;65381;51.254;15.592;2023-05-10T09:52:06;33.00;33.60
76537;DHT22;65381;51.254;15.592;2023-05-10T09:54:36;33.00;33.80
76537;DHT22;65381;51.254;15.592;2023-05-10T09:57:04;33.00;33.80
76537;DHT22;65381;51.254;15.592;2023-05-10T09:59:33;33.00;33.70
76537;DHT22;65381;51.254;15.592;2023-05-10T10:02:02;32.80;33.40
76537;DHT22;65381;51.254;15.592;2023-05-10T10:04:31;32.80;33.00
76537;DHT22;65381;51.254;15.592;2023-05-10T10:07:04;32.20;33.00
76537;DHT22;65381;51.254;15.592;2023-05-10T10:09:33;31.90;33.30
76537;DHT22;65381;51.254;15.592;2023-05-10T10:12:02;31.70;33.30
76537;DHT22;65381;51.254;15.592;2023-05-10T10:14:31;31.80;33.30
76537;DHT22;65381;51.254;15.592;2023-05-10T10:17:00;31.70;33.20
76537;DHT22;65381;51.254;15.592;2023-05-10T10:19:35;31.60;33.20
76537;DHT22;65381;51.254;15.592;2023-05-10T10:22:05;31.30;33.30
76537;DHT22;65381;51.254;15.592;2023-05-10T10:24:33;31.40;33.20
76537;DHT22;65381;51.254;15.592;2023-05-10T10:27:23;31.40;33.00
76537;DHT22;65381;51.254;15.592;2023-05-10T10:36:00;31.90;32.30
76537;DHT22;65381;51.254;15.592;2023-05-10T10:38:56;31.60;32.50
76537;DHT22;65381;51.254;15.592;2023-05-10T10:41:33;31.50;32.80
76537;DHT22;65381;51.254;15.592;2023-05-10T10:44:33;32.00;32.40
76537;DHT22;65381;51.254;15.592;2023-05-10T10:47:06;32.00;32.40
76537;DHT22;65381;51.254;15.592;2023-05-10T10:52:23;31.70;32.40
76537;DHT22;65381;51.254;15.592;2023-05-10T10:57:26;31.40;32.40
76537;DHT22;65381;51.254;15.592;2023-05-10T11:00:56;31.50;32.40
76537;DHT22;65381;51.254;15.592;2023-05-10T11:03:11;31.60;32.40
76537;DHT22;65381;51.254;15.592;2023-05-10T11:05:49;31.90;32.30
76537;DHT22;65381;51.254;15.592;2023-05-10T11:08:30;32.20;32.10
76537;DHT22;65381;51.254;15.592;2023-05-10T11:13:40;32.10;32.20
76537;DHT22;65381;51.254;15.592;2023-05-10T11:16:20;31.60;32.10
76537;DHT22;65381;51.254;15.592;2023-05-10T11:19:02;30.90;32.30
76537;DHT22;65381;51.254;15.592;2023-05-10T11:21:31;30.80;32.60
76537;DHT22;65381;51.254;15.592;2023-05-10T11:24:02;30.90;32.20
76537;DHT22;65381;51.254;15.592;2023-05-10T11:26:36;30.50;32.30
76537;DHT22;65381;51.254;15.592;2023-05-10T11:29:05;30.30;32.50
76537;DHT22;65381;51.254;15.592;2023-05-10T11:31:33;30.30;32.70
76537;DHT22;65381;51.254;15.592;2023-05-10T11:34:01;30.30;32.70
76537;DHT22;65381;51.254;15.592;2023-05-10T11:36:33;30.60;32.60
76537;DHT22;65381;51.254;15.592;2023-05-10T11:39:03;30.90;32.70
76537;DHT22;65381;51.254;15.592;2023-05-10T11:41:31;31.50;32.20
76537;DHT22;65381;51.254;15.592;2023-05-10T11:44:00;31.10;32.20
76537;DHT22;65381;51.254;15.592;2023-05-10T11:46:28;31.00;32.50
76537;DHT22;65381;51.254;15.592;2023-05-10T11:49:00;31.00;32.50
76537;DHT22;65381;51.254;15.592;2023-05-10T11:51:34;31.00;32.50
76537;DHT22;65381;51.254;15.592;2023-05-10T11:54:08;31.00;32.50
76537;DHT22;65381;51.254;15.592;2023-05-10T11:56:37;31.50;32.70
76537;DHT22;65381;51.254;15.592;2023-05-10T11:59:06;31.30;32.60
76537;DHT22;65381;51.254;15.592;2023-05-10T12:01:36;31.10;32.50
76537;DHT22;65381;51.254;15.592;2023-05-10T12:04:04;30.90;32.60
76537;DHT22;65381;51.254;15.592;2023-05-10T12:06:39;30.80;32.30
76537;DHT22;65381;51.254;15.592;2023-05-10T12:09:08;30.60;32.50
76537;DHT22;65381;51.254;15.592;2023-05-10T12:11:40;30.70;32.70
76537;DHT22;65381;51.254;15.592;2023-05-10T12:14:11;30.30;32.20
76537;DHT22;65381;51.254;15.592;2023-05-10T12:16:39;29.90;32.50
76537;DHT22;65381;51.254;15.592;2023-05-10T12:19:07;29.60;32.40
76537;DHT22;65381;51.254;15.592;2023-05-10T12:21:36;29.50;32.70
76537;DHT22;65381;51.254;15.592;2023-05-10T12:24:04;29.50;32.60
76537;DHT22;65381;51.254;15.592;2023-05-10T12:26:35;29.50;32.60
76537;DHT22;65381;51.254;15.592;2023-05-10T12:29:24;29.30;32.60
76537;DHT22;65381;51.254;15.592;2023-05-10T12:31:54;28.90;32.80
76537;DHT22;65381;51.254;15.592;2023-05-10T12:34:30;28.80;33.00
76537;DHT22;65381;51.254;15.592;2023-05-10T12:36:58;28.50;32.90
76537;DHT22;65381;51.254;15.592;2023-05-10T12:39:41;28.10;33.30
76537;DHT22;65381;51.254;15.592;2023-05-10T12:42:10;27.90;33.30
76537;DHT22;65381;51.254;15.592;2023-05-10T12:44:39;27.70;33.40
76537;DHT22;65381;51.254;15.592;2023-05-10T12:47:07;27.40;33.60
76537;DHT22;65381;51.254;15.592;2023-05-10T12:49:35;27.00;33.80
76537;DHT22;65381;51.254;15.592;2023-05-10T12:52:03;26.90;33.80
76537;DHT22;65381;51.254;15.592;2023-05-10T12:54:32;26.70;34.00
76537;DHT22;65381;51.254;15.592;2023-05-10T12:56:59;26.50;34.00
76537;DHT22;65381;51.254;15.592;2023-05-10T12:59:28;26.30;34.00
76537;DHT22;65381;51.254;15.592;2023-05-10T13:01:56;26.00;34.20
76537;DHT22;65381;51.254;15.592;2023-05-10T13:04:25;25.70;34.30
76537;DHT22;65381;51.254;15.592;2023-05-10T13:06:53;25.50;34.40
76537;DHT22;65381;51.254;15.592;2023-05-10T13:09:24;25.30;34.60
76537;DHT22;65381;51.254;15.592;2023-05-10T13:11:52;25.20;34.70
76537;DHT22;65381;51.254;15.592;2023-05-10T13:14:22;25.30;34.70
76537;DHT22;65381;51.254;15.592;2023-05-10T13:16:50;25.10;34.60
76537;DHT22;65381;51.254;15.592;2023-05-10T13:19:18;24.80;34.70
76537;DHT22;65381;51.254;15.592;2023-05-10T13:21:46;24.50;35.00
76537;DHT22;65381;51.254;15.592;2023-05-10T13:24:15;24.40;35.00
76537;DHT22;65381;51.254;15.592;2023-05-10T13:26:44;24.30;35.10
76537;DHT22;65381;51.254;15.592;2023-05-10T13:29:13;24.20;35.10
76537;DHT22;65381;51.254;15.592;2023-05-10T13:31:41;24.00;35.10
76537;DHT22;65381;51.254;15.592;2023-05-10T13:34:09;23.60;35.30
76537;DHT22;65381;51.254;15.592;2023-05-10T13:36:37;23.50;35.50
76537;DHT22;65381;51.254;15.592;2023-05-10T13:39:06;23.50;35.50
76537;DHT22;65381;51.254;15.592;2023-05-10T13:41:34;23.20;35.50
76537;DHT22;65381;51.254;15.592;2023-05-10T13:44:02;22.80;35.60
76537;DHT22;65381;51.254;15.592;2023-05-10T13:46:31;22.50;35.70
76537;DHT22;65381;51.254;15.592;2023-05-10T13:49:00;22.10;35.90
76537;DHT22;65381;51.254;15.592;2023-05-10T13:51:27;21.80;36.00
76537;DHT22;65381;51.254;15.592;2023-05-10T13:53:56;21.60;36.20
76537;DHT22;65381;51.254;15.592;2023-05-10T13:56:23;21.50;36.20
76537;DHT22;65381;51.254;15.592;2023-05-10T13:58:52;21.30;36.30
76537;DHT22;65381;51.254;15.592;2023-05-10T14:01:20;21.10;36.40
76537;DHT22;65381;51.254;15.592;2023-05-10T14:03:49;21.10;36.60
76537;DHT22;65381;51.254;15.592;2023-05-10T14:06:19;21.10;36.60
76537;DHT22;65381;51.254;15.592;2023-05-10T14:08:52;21.20;36.70
76537;DHT22;65381;51.254;15.592;2023-05-10T14:11:21;21.20;36.70
76537;DHT22;65381;51.254;15.592;2023-05-10T14:13:51;21.10;36.70
76537;DHT22;65381;51.254;15.592;2023-05-10T14:16:19;21.10;36.80
76537;DHT22;65381;51.254;15.592;2023-05-10T14:18:48;21.10;36.80
76537;DHT22;65381;51.254;15.592;2023-05-10T14:21:17;21.10;36.90
76537;DHT22;65381;51.254;15.592;2023-05-10T14:23:45;20.90;37.00
76537;DHT22;65381;51.254;15.592;2023-05-10T14:26:14;20.90;37.20
76537;DHT22;65381;51.254;15.592;2023-05-10T14:28:42;20.80;37.40
76537;DHT22;65381;51.254;15.592;2023-05-10T14:31:12;20.70;37.60
76537;DHT22;65381;51.254;15.592;2023-05-10T14:33:42;20.60;37.60
76537;DHT22;65381;51.254;15.592;2023-05-10T14:36:10;20.70;37.60
76537;DHT22;65381;51.254;15.592;2023-05-10T14:38:40;20.70;37.70
76537;DHT22;65381;51.254;15.592;2023-05-10T14:41:09;20.70;37.80
76537;DHT22;65381;51.254;15.592;2023-05-10T14:43:41;20.60;37.80
76537;DHT22;65381;51.254;15.592;2023-05-10T14:46:09;20.60;37.80
76537;DHT22;65381;51.254;15.592;2023-05-10T14:48:38;20.70;37.90
76537;DHT22;65381;51.254;15.592;2023-05-10T14:51:05;20.70;37.90
76537;DHT22;65381;51.254;15.592;2023-05-10T14:53:34;20.80;37.90
76537;DHT22;65381;51.254;15.592;2023-05-10T14:56:02;20.70;37.90
76537;DHT22;65381;51.254;15.592;2023-05-10T14:58:34;20.60;37.90
76537;DHT22;65381;51.254;15.592;2023-05-10T15:01:03;20.50;38.00
76537;DHT22;65381;51.254;15.592;2023-05-10T15:03:32;20.50;38.00
76537;DHT22;65381;51.254;15.592;2023-05-10T15:06:01;20.60;38.10
76537;DHT22;65381;51.254;15.592;2023-05-10T15:08:30;20.70;38.10
76537;DHT22;65381;51.254;15.592;2023-05-10T15:10:59;20.70;38.00
76537;DHT22;65381;51.254;15.592;2023-05-10T15:13:27;20.70;38.10
76537;DHT22;65381;51.254;15.592;2023-05-10T15:15:55;20.70;38.00
76537;DHT22;65381;51.254;15.592;2023-05-10T15:18:24;20.80;38.10
76537;DHT22;65381;51.254;15.592;2023-05-10T15:20:51;20.80;38.20
76537;DHT22;65381;51.254;15.592;2023-05-10T15:23:20;20.70;38.20
76537;DHT22;65381;51.254;15.592;2023-05-10T15:25:47;20.60;38.20
76537;DHT22;65381;51.254;15.592;2023-05-10T15:28:17;20.50;38.30
76537;DHT22;65381;51.254;15.592;2023-05-10T15:30:45;20.50;38.40
76537;DHT22;65381;51.254;15.592;2023-05-10T15:33:13;20.30;38.50
76537;DHT22;65381;51.254;15.592;2023-05-10T15:35:41;20.30;38.50
76537;DHT22;65381;51.254;15.592;2023-05-10T15:38:09;20.30;38.60
76537;DHT22;65381;51.254;15.592;2023-05-10T15:40:37;20.30;38.60
76537;DHT22;65381;51.254;15.592;2023-05-10T15:43:05;20.20;38.50
76537;DHT22;65381;51.254;15.592;2023-05-10T15:45:33;20.30;38.60
76537;DHT22;65381;51.254;15.592;2023-05-10T15:48:04;20.30;38.60
76537;DHT22;65381;51.254;15.592;2023-05-10T15:50:32;20.30;38.60
76537;DHT22;65381;51.254;15.592;2023-05-10T15:53:00;20.30;38.70
76537;DHT22;65381;51.254;15.592;2023-05-10T15:55:28;20.30;38.60
76537;DHT22;65381;51.254;15.592;2023-05-10T15:57:56;20.30;38.60
76537;DHT22;65381;51.254;15.592;2023-05-10T16:00:24;20.30;38.60
76537;DHT22;65381;51.254;15.592;2023-05-10T16:02:53;20.10;38.60
76537;DHT22;65381;51.254;15.592;2023-05-10T16:05:21;20.00;38.70
76537;DHT22;65381;51.254;15.592;2023-05-10T16:07:49;19.80;38.90
76537;DHT22;65381;51.254;15.592;2023-05-10T16:10:18;19.70;38.90
76537;DHT22;65381;51.254;15.592;2023-05-10T16:12:46;19.80;38.90